Terminal Aerodrome Forecast
Issued by NWS

Current Version | Previous Version | Text Only | Print | Product List | Glossary Off
Versions: 1 2 3 4 5 6 7 8 9 10 11 12 13 14 15 16 17 18 19

924
FTUS41 KPBZ 131904 AAA
TAFMGW
TAF AMD
KMGW 131904Z 1319/1418 24010G16KT P6SM BKN070
     FM132300 22007KT 3SM -SHSN BKN050
     FM140600 24012G22KT 2SM -SHSN OVC010
     FM141400 30008KT P6SM BKN020=

USA.gov is the U.S. government's official web portal to all federal, state and local government web resources and services.